createdAt,value
2019-04-07T00:00:57.508Z,96.02
2019-04-07T00:03:29.815Z,95.82
2019-04-07T00:05:59.001Z,95.90
2019-04-07T00:08:29.674Z,95.47
2019-04-07T00:10:58.961Z,95.54
2019-04-07T00:13:29.384Z,95.63
2019-04-07T00:16:04.597Z,95.84
2019-04-07T00:18:36.346Z,96.08
2019-04-07T00:21:19.387Z,96.51
2019-04-07T00:23:49.492Z,96.66
2019-04-07T00:26:26.248Z,96.95
2019-04-07T00:28:53.150Z,96.87
2019-04-07T00:31:29.530Z,96.91
2019-04-07T00:34:00.483Z,96.94
2019-04-07T00:36:32.981Z,96.80
2019-04-07T00:39:06.895Z,97.21
2019-04-07T00:41:38.679Z,96.79
2019-04-07T00:44:08.054Z,97.60
2019-04-07T00:46:40.115Z,97.70
2019-04-07T00:49:13.268Z,97.65
2019-04-07T00:51:45.023Z,97.53
2019-04-07T00:54:25.773Z,97.08
2019-04-07T00:57:07.989Z,97.15
2019-04-07T00:59:40.815Z,97.05
2019-04-07T01:02:13.156Z,96.90
2019-04-07T01:04:46.022Z,97.26
2019-04-07T01:07:19.182Z,97.19
2019-04-07T01:09:48.420Z,97.07
2019-04-07T01:12:21.526Z,97.37
2019-04-07T01:15:00.593Z,97.44
2019-04-07T01:17:31.937Z,97.24
2019-04-07T01:20:06.142Z,97.17
2019-04-07T01:22:39.773Z,97.04
2019-04-07T01:25:13.070Z,97.29
2019-04-07T01:27:42.412Z,97.18
2019-04-07T01:30:14.259Z,97.05
2019-04-07T01:32:47.576Z,97.61
2019-04-07T01:35:19.145Z,97.92
2019-04-07T01:37:48.024Z,98.16
2019-04-07T01:40:21.410Z,98.77
2019-04-07T01:43:06.475Z,98.63
2019-04-07T01:45:48.844Z,98.33
2019-04-07T01:48:43.283Z,98.55
2019-04-07T01:51:41.041Z,98.60
2019-04-07T01:54:31.884Z,98.49
2019-04-07T01:57:18.372Z,99.08
2019-04-07T02:00:24.983Z,99.09
2019-04-07T02:03:08.914Z,99.09
2019-04-07T02:06:02.738Z,99.10
2019-04-07T02:08:49.355Z,98.68
2019-04-07T02:11:24.355Z,98.57
2019-04-07T02:14:01.697Z,98.47
2019-04-07T02:16:38.189Z,98.83
2019-04-07T02:19:19.372Z,99.00
2019-04-07T02:21:59.177Z,99.22
2019-04-07T02:24:47.099Z,99.02
2019-04-07T02:27:23.090Z,99.42
2019-04-07T02:29:59.980Z,99.10
2019-04-07T02:32:46.872Z,99.05
2019-04-07T02:35:43.970Z,99.23
2019-04-07T02:38:23.082Z,98.87
2019-04-07T02:41:04.243Z,98.86
2019-04-07T02:43:50.482Z,99.34
2019-04-07T02:46:41.450Z,99.50
2019-04-07T02:49:44.438Z,99.73
2019-04-07T02:52:43.134Z,100.00
2019-04-07T02:55:40.770Z,100.00
2019-04-07T02:58:20.460Z,100.00
2019-04-07T03:01:27.758Z,100.00
2019-04-07T03:04:07.387Z,100.00
2019-04-07T03:06:51.879Z,100.00
2019-04-07T03:09:31.080Z,100.00
2019-04-07T03:12:08.620Z,100.00
2019-04-07T03:14:47.644Z,100.00
2019-04-07T03:17:41.848Z,100.00
2019-04-07T03:20:36.173Z,100.00
2019-04-07T03:23:23.145Z,100.00
2019-04-07T03:26:16.783Z,100.00
2019-04-07T03:29:03.511Z,100.00
2019-04-07T03:31:40.672Z,100.00
2019-04-07T03:34:33.471Z,100.00
2019-04-07T03:37:22.869Z,100.00
2019-04-07T03:40:15.195Z,100.00
2019-04-07T03:43:01.634Z,100.00
2019-04-07T03:45:45.525Z,100.00
2019-04-07T03:48:51.764Z,100.00
2019-04-07T03:51:43.692Z,100.00
2019-04-07T03:54:24.229Z,100.00
2019-04-07T03:57:11.215Z,100.00
2019-04-07T03:59:49.878Z,100.00
2019-04-07T04:02:36.558Z,100.00
2019-04-07T04:05:24.259Z,100.00
2019-04-07T04:08:02.194Z,100.00
2019-04-07T04:10:37.346Z,100.00
2019-04-07T04:13:21.799Z,100.00
2019-04-07T04:15:57.215Z,100.00
2019-04-07T04:18:26.386Z,100.00
2019-04-07T04:20:57.154Z,100.00
2019-04-07T04:23:26.243Z,100.00
2019-04-07T04:25:55.682Z,100.00
2019-04-07T04:28:24.807Z,100.00
2019-04-07T04:30:53.862Z,100.00
2019-04-07T04:33:23.522Z,100.00
2019-04-07T04:35:52.366Z,100.00
2019-04-07T04:38:21.173Z,100.00
2019-04-07T04:40:50.601Z,100.00
2019-04-07T04:43:19.864Z,100.00
2019-04-07T04:45:48.703Z,100.00
2019-04-07T04:48:17.609Z,100.00
2019-04-07T04:50:47.135Z,100.00
2019-04-07T04:53:17.116Z,100.00
2019-04-07T04:56:05.581Z,100.00
2019-04-07T04:58:34.873Z,100.00
2019-04-07T05:01:04.474Z,100.00
2019-04-07T05:03:33.867Z,100.00
2019-04-07T05:06:03.661Z,100.00
2019-04-07T05:08:32.810Z,100.00
2019-04-07T05:11:01.683Z,100.00
2019-04-07T05:13:30.767Z,100.00
2019-04-07T05:15:59.619Z,100.00
2019-04-07T05:18:29.003Z,100.00
2019-04-07T05:20:58.220Z,100.00
2019-04-07T05:23:26.998Z,100.00
2019-04-07T05:25:55.803Z,100.00
2019-04-07T05:28:24.615Z,100.00
2019-04-07T05:30:53.424Z,100.00
2019-04-07T05:33:22.106Z,100.00
2019-04-07T05:35:51.631Z,100.00
2019-04-07T05:38:21.132Z,100.00
2019-04-07T05:40:50.140Z,100.00
2019-04-07T05:43:19.297Z,100.00
2019-04-07T05:45:48.827Z,100.00
2019-04-07T05:48:20.146Z,100.00
2019-04-07T05:50:48.847Z,100.00
2019-04-07T05:53:17.568Z,100.00
2019-04-07T05:55:47.555Z,100.00
2019-04-07T05:58:16.327Z,100.00
2019-04-07T06:00:46.968Z,100.00
2019-04-07T06:03:16.414Z,100.00
2019-04-07T06:05:48.263Z,100.00
2019-04-07T06:08:24.611Z,100.00
2019-04-07T06:10:46.481Z,100.00
2019-04-07T06:13:15.761Z,100.00
2019-04-07T06:15:44.750Z,99.93
2019-04-07T06:18:13.794Z,99.53
2019-04-07T06:20:45.327Z,99.42
2019-04-07T06:23:13.063Z,99.42
2019-04-07T06:25:43.556Z,99.24
2019-04-07T06:28:16.232Z,99.08
2019-04-07T06:30:43.998Z,98.82
2019-04-07T06:33:13.389Z,100.00
2019-04-07T06:35:44.964Z,100.00
2019-04-07T06:38:13.523Z,100.00
2019-04-07T06:40:42.272Z,100.00
2019-04-07T06:43:11.143Z,99.61
2019-04-07T06:46:04.925Z,99.50
2019-04-07T06:48:38.044Z,99.86
2019-04-07T06:51:13.897Z,99.71
2019-04-07T06:54:02.303Z,99.90
2019-04-07T06:56:49.025Z,99.50
2019-04-07T06:59:35.539Z,98.29
2019-04-07T07:02:27.022Z,95.22
2019-04-07T07:05:16.781Z,95.22
2019-04-07T07:07:50.872Z,92.53
2019-04-07T07:10:42.822Z,90.13
2019-04-07T07:13:28.422Z,88.92
2019-04-07T07:16:05.202Z,88.75
2019-04-07T07:18:47.020Z,86.49
2019-04-07T07:21:24.502Z,86.18
2019-04-07T07:23:53.065Z,86.03
2019-04-07T07:26:21.985Z,85.85
2019-04-07T07:28:51.093Z,85.28
2019-04-07T07:31:22.794Z,85.14
2019-04-07T07:33:50.487Z,85.06
2019-04-07T07:36:21.430Z,84.83
2019-04-07T07:38:58.305Z,83.93
2019-04-07T07:41:22.388Z,82.55
2019-04-07T07:43:51.422Z,82.10
2019-04-07T07:46:22.403Z,81.43
2019-04-07T07:48:51.120Z,81.46
2019-04-07T07:51:20.305Z,81.37
2019-04-07T07:53:49.185Z,80.48
2019-04-07T07:56:17.932Z,79.67
2019-04-07T07:58:47.273Z,79.87
2019-04-07T08:01:17.727Z,79.32
2019-04-07T08:03:46.973Z,78.50
2019-04-07T08:06:16.096Z,78.93
2019-04-07T08:08:47.263Z,78.13
2019-04-07T08:11:16.691Z,77.91
2019-04-07T08:13:46.967Z,78.20
2019-04-07T08:16:16.397Z,78.10
2019-04-07T08:18:46.414Z,78.22
2019-04-07T08:21:18.397Z,78.67
2019-04-07T08:23:45.931Z,78.05
2019-04-07T08:26:15.864Z,76.99
2019-04-07T08:28:45.033Z,76.90
2019-04-07T08:31:17.772Z,77.20
2019-04-07T08:33:44.630Z,75.49
2019-04-07T08:36:14.214Z,75.77
2019-04-07T08:38:43.714Z,74.89
2019-04-07T08:41:15.427Z,74.34
2019-04-07T08:43:42.956Z,74.47
2019-04-07T08:46:12.052Z,75.53
2019-04-07T08:48:41.122Z,73.01
2019-04-07T08:51:10.129Z,73.83
2019-04-07T08:53:38.949Z,74.91
2019-04-07T08:56:08.865Z,73.57
2019-04-07T08:58:39.172Z,74.13
2019-04-07T09:01:08.610Z,73.79
2019-04-07T09:03:37.437Z,73.66
2019-04-07T09:06:07.243Z,72.23
2019-04-07T09:08:37.945Z,73.28
2019-04-07T09:11:13.099Z,72.53
2019-04-07T09:13:44.408Z,72.90
2019-04-07T09:16:31.249Z,70.27
2019-04-07T09:19:22.477Z,70.51
2019-04-07T09:22:08.304Z,70.43
2019-04-07T09:24:56.725Z,69.42
2019-04-07T09:27:54.082Z,69.87
2019-04-07T09:30:41.080Z,70.29
2019-04-07T09:33:34.743Z,69.30
2019-04-07T09:36:07.980Z,70.28
2019-04-07T09:39:08.060Z,69.30
2019-04-07T09:41:45.143Z,69.31
2019-04-07T09:44:42.109Z,69.73
2019-04-07T09:47:22.656Z,68.50
2019-04-07T09:50:07.020Z,68.93
2019-04-07T09:53:07.060Z,69.45
2019-04-07T09:55:56.841Z,69.16
2019-04-07T09:58:42.334Z,69.20
2019-04-07T10:01:27.766Z,69.20
2019-04-07T10:04:11.915Z,70.27
2019-04-07T10:07:02.670Z,69.75
2019-04-07T10:09:52.353Z,69.34
2019-04-07T10:12:43.617Z,67.88
2019-04-07T10:15:30.744Z,67.91
2019-04-07T10:18:30.507Z,67.74
2019-04-07T10:21:21.780Z,67.12
2019-04-07T10:24:16.919Z,66.45
2019-04-07T10:26:56.277Z,65.90
2019-04-07T10:29:41.318Z,65.50
2019-04-07T10:32:34.773Z,66.45
2019-04-07T10:35:22.431Z,66.69
2019-04-07T10:38:10.014Z,64.97
2019-04-07T10:41:13.044Z,64.57
2019-04-07T10:44:09.703Z,65.20
2019-04-07T10:47:03.803Z,65.01
2019-04-07T10:49:57.859Z,64.14
2019-04-07T10:52:35.995Z,64.30
2019-04-07T10:55:15.437Z,62.70
2019-04-07T10:58:09.305Z,63.84
2019-04-07T11:00:50.907Z,63.87
2019-04-07T11:03:36.260Z,62.88
2019-04-07T11:06:23.846Z,62.92
2019-04-07T11:09:18.747Z,63.63
2019-04-07T11:12:07.507Z,63.07
2019-04-07T11:14:55.870Z,62.30
2019-04-07T11:17:31.576Z,63.94
2019-04-07T11:20:06.720Z,61.73
2019-04-07T11:22:54.195Z,62.44
2019-04-07T11:25:31.622Z,61.67
2019-04-07T11:28:18.796Z,61.79
2019-04-07T11:31:12.765Z,61.30
2019-04-07T11:33:50.252Z,62.22
2019-04-07T11:36:25.522Z,59.64
2019-04-07T11:39:12.210Z,59.66
2019-04-07T11:42:00.990Z,60.17
2019-04-07T11:44:44.180Z,61.33
2019-04-07T11:47:32.935Z,60.20
2019-04-07T11:50:23.752Z,60.07
2019-04-07T11:53:03.868Z,59.01
2019-04-07T11:55:51.982Z,59.04
2019-04-07T11:58:36.205Z,60.31
2019-04-07T12:01:27.143Z,59.43
2019-04-07T12:04:09.605Z,58.80
2019-04-07T12:07:00.089Z,59.06
2019-04-07T12:09:39.784Z,58.84
2019-04-07T12:12:29.972Z,58.66
2019-04-07T12:15:17.526Z,58.50
2019-04-07T12:18:00.308Z,57.77
2019-04-07T12:20:40.821Z,57.22
2019-04-07T12:23:23.389Z,59.53
2019-04-07T12:26:17.083Z,58.32
2019-04-07T12:29:00.493Z,57.27
2019-04-07T12:31:42.396Z,59.08
2019-04-07T12:34:18.980Z,59.58
2019-04-07T12:37:06.896Z,59.41
2019-04-07T12:39:50.924Z,58.46
2019-04-07T12:42:26.750Z,57.43
2019-04-07T12:45:01.801Z,56.73
2019-04-07T12:47:41.514Z,57.66
2019-04-07T12:50:26.304Z,57.22
2019-04-07T12:53:04.868Z,57.08
2019-04-07T12:56:00.784Z,56.38
2019-04-07T12:58:44.057Z,57.21
2019-04-07T13:01:22.885Z,57.20
2019-04-07T13:04:23.331Z,57.81
2019-04-07T13:06:59.379Z,58.42
2019-04-07T13:09:46.200Z,58.15
2019-04-07T13:12:46.654Z,57.65
2019-04-07T13:15:30.313Z,58.55
2019-04-07T13:18:18.752Z,58.23
2019-04-07T13:21:25.075Z,58.37
2019-04-07T13:24:06.186Z,57.95
2019-04-07T13:26:45.689Z,55.95
2019-04-07T13:29:33.777Z,56.20
2019-04-07T13:32:12.209Z,56.65
2019-04-07T13:35:09.200Z,57.03
2019-04-07T13:37:46.932Z,56.99
2019-04-07T13:40:31.782Z,55.78
2019-04-07T13:43:33.745Z,57.11
2019-04-07T13:46:31.353Z,56.85
2019-04-07T13:49:13.908Z,56.49
2019-04-07T13:52:08.554Z,55.53
2019-04-07T13:54:50.747Z,56.05
2019-04-07T13:57:27.664Z,55.84
2019-04-07T14:00:15.995Z,56.96
2019-04-07T14:02:58.730Z,56.95
2019-04-07T14:05:46.395Z,55.96
2019-04-07T14:08:41.551Z,57.18
2019-04-07T14:11:29.956Z,58.14
2019-04-07T14:14:21.139Z,57.23
2019-04-07T14:17:08.342Z,56.92
2019-04-07T14:19:59.486Z,57.62
2019-04-07T14:22:41.049Z,56.87
2019-04-07T14:25:18.050Z,55.70
2019-04-07T14:28:12.900Z,56.13
2019-04-07T14:31:02.020Z,56.63
2019-04-07T14:33:50.525Z,56.23
2019-04-07T14:36:30.058Z,56.09
2019-04-07T14:39:21.660Z,55.23
2019-04-07T14:42:06.009Z,56.19
2019-04-07T14:44:38.722Z,55.58
2019-04-07T14:47:19.810Z,55.35
2019-04-07T14:50:11.852Z,55.04
2019-04-07T14:52:56.754Z,54.99
2019-04-07T14:55:32.572Z,55.43
2019-04-07T14:58:25.831Z,54.90
2019-04-07T15:01:06.886Z,54.77
2019-04-07T15:03:35.268Z,54.91
2019-04-07T15:06:05.358Z,55.44
2019-04-07T15:08:46.286Z,55.71
2019-04-07T15:11:27.841Z,55.50
2019-04-07T15:13:58.737Z,55.28
2019-04-07T15:16:27.490Z,55.92
2019-04-07T15:18:56.599Z,55.17
2019-04-07T15:21:25.438Z,53.13
2019-04-07T15:23:54.280Z,54.48
2019-04-07T15:26:23.622Z,53.81
2019-04-07T15:28:52.668Z,53.74
2019-04-07T15:31:21.687Z,54.61
2019-04-07T15:33:50.932Z,55.21
2019-04-07T15:36:20.019Z,54.03
2019-04-07T15:38:49.661Z,54.74
2019-04-07T15:41:19.536Z,54.00
2019-04-07T15:43:48.903Z,54.21
2019-04-07T15:46:19.163Z,54.02
2019-04-07T15:48:48.697Z,53.04
2019-04-07T15:51:17.726Z,52.13
2019-04-07T15:53:51.485Z,53.97
2019-04-07T15:56:18.464Z,53.96
2019-04-07T15:58:48.361Z,53.72
2019-04-07T16:01:17.226Z,53.32
2019-04-07T16:03:50.511Z,54.04
2019-04-07T16:06:17.495Z,53.83
2019-04-07T16:08:46.869Z,54.59
2019-04-07T16:11:16.825Z,53.02
2019-04-07T16:13:46.312Z,52.62
2019-04-07T16:16:15.026Z,52.41
2019-04-07T16:18:45.327Z,52.20
2019-04-07T16:21:14.367Z,53.78
2019-04-07T16:23:43.144Z,53.93
2019-04-07T16:26:11.931Z,53.26
2019-04-07T16:28:41.346Z,54.21
2019-04-07T16:31:12.137Z,54.09
2019-04-07T16:33:41.046Z,54.72
2019-04-07T16:36:10.745Z,55.44
2019-04-07T16:38:39.648Z,54.89
2019-04-07T16:41:08.443Z,54.68
2019-04-07T16:43:38.156Z,54.62
2019-04-07T16:46:07.722Z,55.31
2019-04-07T16:48:39.999Z,55.44
2019-04-07T16:51:07.257Z,55.84
2019-04-07T16:53:38.039Z,55.38
2019-04-07T16:56:07.482Z,55.50
2019-04-07T16:58:38.514Z,56.09
2019-04-07T17:01:07.760Z,56.97
2019-04-07T17:03:36.831Z,56.16
2019-04-07T17:06:05.668Z,55.80
2019-04-07T17:08:34.396Z,56.77
2019-04-07T17:11:06.438Z,56.61
2019-04-07T17:13:40.802Z,56.16
2019-04-07T17:16:04.735Z,56.46
2019-04-07T17:18:41.637Z,56.95
2019-04-07T17:21:15.246Z,57.30
2019-04-07T17:23:45.505Z,57.89
2019-04-07T17:26:14.891Z,57.87
2019-04-07T17:28:45.175Z,58.77
2019-04-07T17:31:14.547Z,58.83
2019-04-07T17:33:43.475Z,59.04
2019-04-07T17:36:15.367Z,58.93
2019-04-07T17:38:56.384Z,58.77
2019-04-07T17:41:25.113Z,59.39
2019-04-07T17:44:02.794Z,59.11
2019-04-07T17:46:57.002Z,59.44
2019-04-07T17:49:36.463Z,63.08
2019-04-07T17:52:22.223Z,67.26
2019-04-07T17:55:00.039Z,69.38
2019-04-07T17:57:47.977Z,70.15
2019-04-07T18:00:36.277Z,71.63
2019-04-07T18:03:23.681Z,73.63
2019-04-07T18:06:01.851Z,74.87
2019-04-07T18:08:46.389Z,75.64
2019-04-07T18:11:43.405Z,76.51
2019-04-07T18:14:28.352Z,77.29
2019-04-07T18:17:18.513Z,79.26
2019-04-07T18:19:53.682Z,79.21
2019-04-07T18:22:51.653Z,80.00
2019-04-07T18:25:44.621Z,79.56
2019-04-07T18:28:23.893Z,80.05
2019-04-07T18:31:02.937Z,80.36
2019-04-07T18:33:51.627Z,80.88
2019-04-07T18:36:37.818Z,81.75
2019-04-07T18:39:36.856Z,82.58
2019-04-07T18:42:34.996Z,83.59
2019-04-07T18:45:15.923Z,84.53
2019-04-07T18:48:02.264Z,84.12
2019-04-07T18:50:43.309Z,85.18
2019-04-07T18:53:30.737Z,86.39
2019-04-07T18:56:14.091Z,86.44
2019-04-07T18:59:04.843Z,86.65
2019-04-07T19:01:55.953Z,87.20
2019-04-07T19:04:38.019Z,87.41
2019-04-07T19:07:16.886Z,86.26
2019-04-07T19:10:10.377Z,86.56
2019-04-07T19:13:03.107Z,87.17
2019-04-07T19:15:55.481Z,87.86
2019-04-07T19:18:42.753Z,87.65
2019-04-07T19:21:47.008Z,87.41
2019-04-07T19:24:37.842Z,86.67
2019-04-07T19:27:30.097Z,87.77
2019-04-07T19:30:15.297Z,89.48
2019-04-07T19:33:05.127Z,88.97
2019-04-07T19:35:44.547Z,88.59
2019-04-07T19:38:30.660Z,88.03
2019-04-07T19:41:31.516Z,87.69
2019-04-07T19:44:34.841Z,87.75
2019-04-07T19:47:22.769Z,87.99
2019-04-07T19:50:11.602Z,87.74
2019-04-07T19:52:51.756Z,87.53
2019-04-07T19:55:26.631Z,87.24
2019-04-07T19:58:15.241Z,87.74
2019-04-07T20:01:01.205Z,87.60
2019-04-07T20:03:46.092Z,87.68
2019-04-07T20:06:32.811Z,87.57
2019-04-07T20:09:19.645Z,87.86
2019-04-07T20:12:00.572Z,88.26
2019-04-07T20:15:03.052Z,88.70
2019-04-07T20:17:43.846Z,88.53
2019-04-07T20:20:43.496Z,88.56
2019-04-07T20:23:50.073Z,88.49
2019-04-07T20:26:50.960Z,89.06
2019-04-07T20:29:41.475Z,88.87
2019-04-07T20:32:13.119Z,88.85
2019-04-07T20:35:00.002Z,88.93
2019-04-07T20:37:35.261Z,89.46
2019-04-07T20:40:12.367Z,89.28
2019-04-07T20:42:48.385Z,88.85
2019-04-07T20:45:31.847Z,89.14
2019-04-07T20:48:31.587Z,89.41
2019-04-07T20:51:12.876Z,89.41
2019-04-07T20:53:51.432Z,89.65
2019-04-07T20:56:35.527Z,89.98
2019-04-07T20:59:30.490Z,90.14
2019-04-07T21:02:32.376Z,90.18
2019-04-07T21:05:22.397Z,89.89
2019-04-07T21:08:08.675Z,89.90
2019-04-07T21:10:43.706Z,89.87
2019-04-07T21:13:21.809Z,90.14
2019-04-07T21:16:08.774Z,90.24
2019-04-07T21:19:01.141Z,90.21
2019-04-07T21:21:46.746Z,90.14
2019-04-07T21:24:34.196Z,89.59
2019-04-07T21:27:14.267Z,89.88
2019-04-07T21:29:48.942Z,90.24
2019-04-07T21:32:51.372Z,90.15
2019-04-07T21:35:34.571Z,90.87
2019-04-07T21:38:21.537Z,92.21
2019-04-07T21:40:59.767Z,92.65
2019-04-07T21:43:38.712Z,92.38
2019-04-07T21:46:22.405Z,91.50
2019-04-07T21:49:15.699Z,91.50
2019-04-07T21:51:58.777Z,91.96
2019-04-07T21:54:45.727Z,91.28
2019-04-07T21:57:27.727Z,91.44
2019-04-07T22:00:20.871Z,91.65
2019-04-07T22:03:14.723Z,91.95
2019-04-07T22:05:59.398Z,91.54
2019-04-07T22:08:36.856Z,91.54
2019-04-07T22:11:05.831Z,91.78
2019-04-07T22:13:35.496Z,91.95
2019-04-07T22:16:05.880Z,92.16
2019-04-07T22:18:37.449Z,92.16
2019-04-07T22:21:05.352Z,92.50
2019-04-07T22:23:34.098Z,92.04
2019-04-07T22:26:03.226Z,92.04
2019-04-07T22:28:31.957Z,92.12
2019-04-07T22:31:01.488Z,91.64
2019-04-07T22:33:32.416Z,91.64
2019-04-07T22:36:01.819Z,91.82
2019-04-07T22:38:31.525Z,92.00
2019-04-07T22:41:00.635Z,92.22
2019-04-07T22:43:29.415Z,92.76
2019-04-07T22:46:07.816Z,92.82
2019-04-07T22:48:29.509Z,92.82
2019-04-07T22:50:58.838Z,92.57
2019-04-07T22:53:30.920Z,92.83
2019-04-07T22:55:59.096Z,92.97
2019-04-07T22:58:27.953Z,92.77
2019-04-07T23:00:57.179Z,93.06
2019-04-07T23:03:26.091Z,93.06
2019-04-07T23:05:55.462Z,93.21
2019-04-07T23:08:24.669Z,93.25
2019-04-07T23:10:53.413Z,93.25
2019-04-07T23:13:22.247Z,92.94
2019-04-07T23:15:51.150Z,93.01
2019-04-07T23:18:20.954Z,93.42
2019-04-07T23:20:49.733Z,93.70
2019-04-07T23:23:18.488Z,94.05
2019-04-07T23:25:47.322Z,93.76
2019-04-07T23:28:16.713Z,93.61
2019-04-07T23:30:46.063Z,93.28
2019-04-07T23:33:14.815Z,93.42
2019-04-07T23:35:43.573Z,93.66
2019-04-07T23:38:13.341Z,94.02
2019-04-07T23:40:42.444Z,93.94
2019-04-07T23:43:11.248Z,94.24
2019-04-07T23:45:39.997Z,94.61
2019-04-07T23:48:08.761Z,94.96
2019-04-07T23:50:37.607Z,94.94
2019-04-07T23:53:42.907Z,95.26
2019-04-07T23:56:12.152Z,95.27
2019-04-07T23:58:41.302Z,94.90
